Time;durP1;ratioP1;P1;durP2;ratioP2;P2;SDS_P1;SDS_P2;PMS_P1;PMS_P2;Temp;Humidity;BMP_temperature;BMP_pressure;BME280_temperature;BME280_humidity;BME280_pressure;Samples;Min_cycle;Max_cycle;Signal;HPM_P1;HPM_P2
2022/08/06 00:02:00;;;;;;;6.22;1.80;;;13.80;99.90;;;;;;5044452;28;20040;-84
2022/08/06 00:04:25;;;;;;;8.13;2.47;;;13.70;99.90;;;;;;5043561;28;20449;-84
2022/08/06 00:06:51;;;;;;;8.45;2.38;;;13.70;99.90;;;;;;5044058;28;20075;-84
2022/08/06 00:09:17;;;;;;;7.43;2.00;;;13.70;99.90;;;;;;5044982;28;20041;-84
2022/08/06 00:11:42;;;;;;;7.05;1.70;;;13.70;99.90;;;;;;5042395;28;20037;-84
2022/08/06 00:14:09;;;;;;;6.65;2.08;;;13.70;99.90;;;;;;5044263;28;20035;-84
2022/08/06 00:16:35;;;;;;;4.15;1.70;;;13.60;99.90;;;;;;5060833;28;20033;-84
2022/08/06 00:19:00;;;;;;;6.13;2.00;;;13.50;99.90;;;;;;5043026;28;20441;-84
2022/08/06 00:21:26;;;;;;;7.70;2.95;;;13.50;99.90;;;;;;5060863;28;20497;-84
2022/08/06 00:23:51;;;;;;;12.20;3.53;;;13.50;99.90;;;;;;5060149;28;20585;-84
2022/08/06 00:26:17;;;;;;;6.57;2.05;;;13.50;99.90;;;;;;5043071;28;20033;-84
2022/08/06 00:28:43;;;;;;;8.27;2.60;;;13.40;99.90;;;;;;5055488;28;20071;-84
2022/08/06 00:31:10;;;;;;;7.97;2.78;;;13.40;99.90;;;;;;5044141;28;20402;-84
2022/08/06 00:33:36;;;;;;;9.02;2.63;;;13.40;99.90;;;;;;5059710;28;20096;-84
2022/08/06 00:36:03;;;;;;;8.02;2.22;;;13.40;99.90;;;;;;5060216;28;20115;-84
2022/08/06 00:38:28;;;;;;;8.63;2.30;;;13.30;99.90;;;;;;5044601;28;20040;-84
2022/08/06 00:40:54;;;;;;;7.03;2.80;;;13.20;99.90;;;;;;5058905;28;20409;-84
2022/08/06 00:43:20;;;;;;;6.45;2.10;;;13.20;99.90;;;;;;5060027;28;20040;-84
2022/08/06 00:45:46;;;;;;;6.40;2.30;;;13.10;99.90;;;;;;5060560;28;20563;-84
2022/08/06 00:48:14;;;;;;;7.32;2.70;;;13.00;99.90;;;;;;5058876;28;20064;-84
2022/08/06 00:50:40;;;;;;;6.43;2.35;;;13.00;99.90;;;;;;5060018;28;20048;-84
2022/08/06 00:53:05;;;;;;;5.18;2.35;;;12.90;99.90;;;;;;5060064;28;20041;-84
2022/08/06 00:55:32;;;;;;;7.22;2.67;;;12.80;99.90;;;;;;5058774;28;20041;-84
2022/08/06 00:57:58;;;;;;;7.57;3.38;;;12.70;99.90;;;;;;5043483;28;20064;-84
2022/08/06 01:00:23;;;;;;;7.70;2.60;;;12.70;99.90;;;;;;5043393;28;20086;-84
2022/08/06 01:02:49;;;;;;;6.32;3.13;;;12.70;99.90;;;;;;5058233;28;20033;-84
2022/08/06 01:05:14;;;;;;;6.95;2.45;;;12.60;99.90;;;;;;5043965;28;20107;-83
2022/08/06 01:07:40;;;;;;;7.65;2.47;;;12.60;99.90;;;;;;5059797;28;20036;-83
2022/08/06 01:10:06;;;;;;;8.18;3.20;;;12.50;99.90;;;;;;5058999;28;20142;-83
2022/08/06 01:12:32;;;;;;;5.68;2.15;;;12.60;99.90;;;;;;5060087;28;20120;-83
2022/08/06 01:14:58;;;;;;;5.45;2.45;;;12.60;99.90;;;;;;5059061;28;20032;-83
2022/08/06 01:17:30;;;;;;;10.00;2.67;;;12.50;99.90;;;;;;5059084;28;20032;-83
2022/08/06 01:20:07;;;;;;;;;;;12.40;99.90;;;;;;5059444;28;20124;-83
2022/08/06 01:22:54;;;;;;;9.30;2.58;;;12.40;99.90;;;;;;5041256;28;19923;-83
2022/08/06 01:25:44;;;;;;;5.20;2.10;;;12.30;99.90;;;;;;5043915;28;20037;-83
2022/08/06 01:28:16;;;;;;;7.07;2.38;;;12.20;99.90;;;;;;5060354;28;20037;-84
2022/08/06 01:30:49;;;;;;;7.90;2.53;;;12.20;99.90;;;;;;5057400;28;20478;-83
2022/08/06 01:33:33;;;;;;;6.45;2.08;;;12.20;99.90;;;;;;5058580;28;20490;-83
2022/08/06 01:36:02;;;;;;;9.73;3.40;;;12.20;99.90;;;;;;5069929;28;20044;-84
2022/08/06 01:38:44;;;;;;;5.97;2.40;;;12.20;99.90;;;;;;5069705;28;20522;-84
2022/08/06 01:41:12;;;;;;;5.10;2.30;;;12.20;99.90;;;;;;5069150;28;20350;-84
2022/08/06 01:43:41;;;;;;;6.53;2.70;;;12.10;99.90;;;;;;5069646;28;20075;-84
2022/08/06 01:46:10;;;;;;;6.63;2.38;;;12.10;99.90;;;;;;5069481;28;20044;-84
2022/08/06 01:48:36;;;;;;;5.82;2.50;;;12.10;99.90;;;;;;5069841;28;20379;-84
2022/08/06 01:51:05;;;;;;;10.70;2.60;;;12.10;99.90;;;;;;5069337;28;20036;-84
2022/08/06 01:53:36;;;;;;;6.15;2.42;;;12.00;99.90;;;;;;5069177;28;20044;-84
2022/08/06 01:56:04;;;;;;;6.53;2.58;;;12.00;99.90;;;;;;5052890;28;20040;-84
2022/08/06 01:58:34;;;;;;;6.38;2.70;;;11.90;99.90;;;;;;5069369;28;20033;-83
2022/08/06 02:01:03;;;;;;;7.03;2.72;;;11.90;99.90;;;;;;5069124;28;20037;-84
2022/08/06 02:03:45;;;;;;;6.25;2.50;;;11.80;99.90;;;;;;5069495;28;20029;-85
2022/08/06 02:06:14;;;;;;;8.93;3.78;;;11.80;99.90;;;;;;5053060;28;20037;-84
2022/08/06 02:08:41;;;;;;;7.85;2.60;;;11.80;99.90;;;;;;5054159;28;20043;-84
2022/08/06 02:11:09;;;;;;;6.82;2.85;;;11.80;99.90;;;;;;5073079;28;20405;-84
2022/08/06 02:13:36;;;;;;;6.85;2.88;;;11.70;99.90;;;;;;5057085;28;20126;-84
2022/08/06 02:16:03;;;;;;;6.90;2.72;;;11.70;99.90;;;;;;5056465;28;20068;-84
2022/08/06 02:18:35;;;;;;;7.70;2.78;;;11.70;99.90;;;;;;5074635;28;20048;-84
2022/08/06 02:21:04;;;;;;;7.05;2.78;;;11.70;99.90;;;;;;5056121;28;20039;-84
2022/08/06 02:23:31;;;;;;;7.72;2.88;;;11.60;99.90;;;;;;5072822;28;20036;-84
2022/08/06 02:25:57;;;;;;;6.95;2.95;;;11.60;99.90;;;;;;5073325;28;20439;-84
2022/08/06 02:28:26;;;;;;;8.07;3.05;;;11.60;99.90;;;;;;5073317;28;20040;-84
2022/08/06 02:30:55;;;;;;;7.72;2.65;;;11.50;99.90;;;;;;5072667;28;20048;-84
2022/08/06 02:33:20;;;;;;;9.57;3.03;;;11.50;99.90;;;;;;5072918;28;20080;-84
2022/08/06 02:35:52;;;;;;;6.90;2.92;;;11.50;99.90;;;;;;5073051;28;20585;-84
2022/08/06 02:38:24;;;;;;;6.75;3.30;;;11.50;99.90;;;;;;5056119;28;20032;-84
2022/08/06 02:40:55;;;;;;;8.80;2.67;;;11.40;99.90;;;;;;5072673;28;20547;-84
2022/08/06 02:43:27;;;;;;;7.40;3.08;;;11.40;99.90;;;;;;5056412;28;20048;-84
2022/08/06 02:46:08;;;;;;;8.82;3.47;;;11.40;99.90;;;;;;5072923;28;20059;-84
2022/08/06 02:48:52;;;;;;;6.82;3.42;;;11.40;99.90;;;;;;5072743;28;20036;-84
2022/08/06 02:51:21;;;;;;;11.02;3.25;;;11.40;99.90;;;;;;5071986;28;20036;-84
2022/08/06 02:54:07;;;;;;;7.13;3.63;;;11.40;99.90;;;;;;5056044;28;20042;-84
2022/08/06 02:56:37;;;;;;;8.60;3.72;;;11.30;99.90;;;;;;5055798;28;20039;-84
2022/08/06 02:59:04;;;;;;;8.55;3.63;;;11.30;99.90;;;;;;5055675;28;20505;-84
2022/08/06 03:01:37;;;;;;;6.68;3.25;;;11.40;99.90;;;;;;5072171;28;20059;-84
2022/08/06 03:04:06;;;;;;;7.75;3.63;;;11.40;99.90;;;;;;5072504;28;20040;-84
2022/08/06 03:06:35;;;;;;;9.80;3.92;;;11.40;99.90;;;;;;5055513;28;20036;-84
2022/08/06 03:09:04;;;;;;;8.82;3.67;;;11.40;99.90;;;;;;5071995;28;20123;-84
2022/08/06 03:11:33;;;;;;;9.52;3.85;;;11.40;99.90;;;;;;5071776;28;20053;-84
2022/08/06 03:14:01;;;;;;;8.10;3.67;;;11.40;99.90;;;;;;5072364;28;20071;-84
2022/08/06 03:16:30;;;;;;;9.32;5.10;;;11.40;99.90;;;;;;5072516;28;20072;-84
2022/08/06 03:18:57;;;;;;;8.40;4.13;;;11.40;99.90;;;;;;5055494;28;20260;-84
2022/08/06 03:21:24;;;;;;;8.23;3.58;;;11.40;99.90;;;;;;5054923;28;20036;-84
2022/08/06 03:23:51;;;;;;;8.15;4.03;;;11.30;99.90;;;;;;5072345;28;20109;-84
2022/08/06 03:26:17;;;;;;;8.32;3.70;;;11.30;99.90;;;;;;5055433;28;20066;-84
2022/08/06 03:28:44;;;;;;;8.88;4.30;;;11.20;99.90;;;;;;5054936;28;20557;-84
2022/08/06 03:31:11;;;;;;;8.38;3.55;;;11.20;99.90;;;;;;5055086;28;20119;-84
2022/08/06 03:33:37;;;;;;;7.90;3.30;;;11.20;99.90;;;;;;5071897;28;20044;-84
2022/08/06 03:36:04;;;;;;;7.50;3.55;;;11.10;99.90;;;;;;5071581;28;20040;-84
2022/08/06 03:38:37;;;;;;;8.00;3.70;;;11.10;99.90;;;;;;5071813;28;20165;-84
2022/08/06 03:41:04;;;;;;;7.15;3.25;;;11.10;99.90;;;;;;5055209;28;20048;-84
2022/08/06 03:43:30;;;;;;;10.95;3.97;;;11.10;99.90;;;;;;5055117;28;20591;-84
2022/08/06 03:46:00;;;;;;;8.77;3.70;;;11.10;99.90;;;;;;5071633;28;20036;-84
2022/08/06 03:48:31;;;;;;;9.30;3.65;;;11.10;99.90;;;;;;5055313;28;20162;-84
2022/08/06 03:51:01;;;;;;;8.90;5.35;;;11.10;99.90;;;;;;5071361;28;20044;-84
2022/08/06 03:53:27;;;;;;;8.07;4.10;;;11.20;99.90;;;;;;5071456;28;20494;-84
2022/08/06 03:55:57;;;;;;;10.55;3.90;;;11.20;99.90;;;;;;5071288;28;20188;-84
2022/08/06 03:58:25;;;;;;;9.15;3.90;;;11.20;99.90;;;;;;5071068;28;20048;-84
2022/08/06 04:01:12;;;;;;;7.20;3.42;;;11.20;99.90;;;;;;5054500;28;20082;-84
2022/08/06 04:03:39;;;;;;;10.55;4.25;;;11.20;99.90;;;;;;5071093;28;20048;-84
2022/08/06 04:06:09;;;;;;;7.60;3.60;;;11.20;99.90;;;;;;5054601;28;20486;-84
2022/08/06 04:08:37;;;;;;;7.30;3.58;;;11.20;99.90;;;;;;5071386;28;20047;-84
2022/08/06 04:11:03;;;;;;;8.35;4.03;;;11.10;99.90;;;;;;5054453;28;20040;-84
2022/08/06 04:13:29;;;;;;;7.05;3.38;;;11.10;99.90;;;;;;5070648;28;20048;-84
2022/08/06 04:15:56;;;;;;;8.90;3.63;;;11.20;99.90;;;;;;5071025;28;20082;-84
2022/08/06 04:18:34;;;;;;;8.95;5.30;;;11.10;99.90;;;;;;5071011;28;20040;-84
2022/08/06 04:21:03;;;;;;;6.93;3.63;;;11.20;99.90;;;;;;5070455;28;20080;-84
2022/08/06 04:23:30;;;;;;;9.95;3.72;;;11.20;99.90;;;;;;5070764;28;20037;-84
2022/08/06 04:25:58;;;;;;;10.00;4.05;;;11.20;99.90;;;;;;5070947;28;20124;-84
2022/08/06 04:28:26;;;;;;;9.60;3.42;;;11.20;99.90;;;;;;5053800;28;20045;-84
2022/08/06 04:30:53;;;;;;;6.93;3.17;;;11.20;99.90;;;;;;5070246;28;20048;-84
2022/08/06 04:33:22;;;;;;;7.80;3.67;;;11.20;99.90;;;;;;5070745;28;20036;-84
2022/08/06 04:35:48;;;;;;;7.18;3.60;;;11.20;99.90;;;;;;5070450;28;20493;-84
2022/08/06 04:38:16;;;;;;;7.80;3.63;;;11.20;99.90;;;;;;5071160;28;20135;-84
2022/08/06 04:40:42;;;;;;;7.53;3.08;;;11.20;99.90;;;;;;5071589;28;20045;-84
2022/08/06 04:43:10;;;;;;;9.00;3.75;;;11.20;99.90;;;;;;5070143;28;20043;-84
2022/08/06 04:45:40;;;;;;;8.52;5.32;;;11.20;99.90;;;;;;5053922;28;20045;-84
2022/08/06 04:48:09;;;;;;;8.63;4.45;;;11.30;99.90;;;;;;5054003;28;20072;-83
2022/08/06 04:50:36;;;;;;;10.43;4.25;;;11.30;99.90;;;;;;5070206;28;20048;-84
2022/08/06 04:53:11;;;;;;;9.60;4.28;;;11.20;99.90;;;;;;5069673;28;20036;-84
2022/08/06 04:55:38;;;;;;;8.18;4.10;;;11.20;99.90;;;;;;5070224;28;20406;-84
2022/08/06 04:58:07;;;;;;;8.48;4.15;;;11.20;99.90;;;;;;5070067;28;20039;-84
2022/08/06 05:00:37;;;;;;;8.50;3.70;;;11.20;99.90;;;;;;5070390;28;20409;-84
2022/08/06 05:03:03;;;;;;;7.10;3.78;;;11.20;99.90;;;;;;5053556;28;20432;-84
2022/08/06 05:05:31;;;;;;;8.65;4.63;;;11.10;99.90;;;;;;5053118;28;20511;-84
2022/08/06 05:07:59;;;;;;;8.93;6.47;;;11.20;99.90;;;;;;5053258;28;20036;-84
2022/08/06 05:10:32;;;;;;;10.10;4.32;;;11.30;99.90;;;;;;5070048;28;20409;-84
2022/08/06 05:12:58;;;;;;;;;;;11.30;99.90;;;;;;5069891;28;20668;-83
2022/08/06 05:15:34;;;;;;;8.32;4.10;;;11.20;99.90;;;;;;5070189;28;19930;-82
2022/08/06 05:18:16;;;;;;;6.53;3.38;;;11.20;99.90;;;;;;5053524;28;20044;-83
2022/08/06 05:20:49;;;;;;;7.90;3.70;;;11.20;99.90;;;;;;5069683;28;20040;-83
2022/08/06 05:23:40;;;;;;;8.05;3.50;;;11.20;99.90;;;;;;5069938;28;20036;-82
2022/08/06 05:26:07;;;;;;;9.10;4.22;;;11.30;99.90;;;;;;5070231;28;20036;-83
2022/08/06 05:28:33;;;;;;;10.07;5.03;;;11.30;99.90;;;;;;5069446;28;20032;-83
2022/08/06 05:30:58;;;;;;;9.38;7.13;;;11.30;99.90;;;;;;5069712;28;20072;-83
2022/08/06 05:33:30;;;;;;;8.63;5.15;;;11.40;99.90;;;;;;5069885;28;20550;-84
2022/08/06 05:35:58;;;;;;;9.65;4.57;;;11.50;99.90;;;;;;5069940;28;20082;-84
2022/08/06 05:38:25;;;;;;;12.18;8.23;;;11.50;99.90;;;;;;5053322;28;20028;-84
2022/08/06 05:40:52;;;;;;;11.68;5.75;;;11.60;99.90;;;;;;5052608;28;20044;-84
2022/08/06 05:43:17;;;;;;;11.85;6.20;;;11.60;99.90;;;;;;5070834;28;20041;-85
2022/08/06 05:45:46;;;;;;;13.48;6.40;;;11.70;99.90;;;;;;5073954;28;20089;-84
2022/08/06 05:48:13;;;;;;;13.50;7.28;;;11.70;99.90;;;;;;5073977;28;20521;-84
2022/08/06 05:50:59;;;;;;;12.10;6.70;;;11.80;99.90;;;;;;5073845;28;20493;-84
2022/08/06 05:53:35;;;;;;;11.90;6.28;;;11.80;99.90;;;;;;5073925;28;20059;-84
2022/08/06 05:56:09;;;;;;;9.73;6.07;;;11.90;99.90;;;;;;5064254;28;20596;-84
2022/08/06 05:58:59;;;;;;;10.90;6.38;;;12.00;99.90;;;;;;5044196;28;20395;-84
2022/08/06 06:01:26;;;;;;;12.27;6.95;;;12.10;99.90;;;;;;5053386;28;20045;-84
2022/08/06 06:03:53;;;;;;;10.05;6.13;;;12.10;99.90;;;;;;5061298;28;20497;-84
2022/08/06 06:06:21;;;;;;;9.82;5.72;;;12.20;99.90;;;;;;5073737;28;20420;-83
2022/08/06 06:08:48;;;;;;;10.35;5.88;;;12.30;99.90;;;;;;5073820;28;20058;-83
2022/08/06 06:11:14;;;;;;;10.77;7.90;;;12.40;99.90;;;;;;5055988;28;20486;-84
2022/08/06 06:13:41;;;;;;;12.82;4.97;;;12.50;99.90;;;;;;5056772;28;20124;-84
2022/08/06 06:16:44;;;;;;;8.63;5.28;;;12.60;99.90;;;;;;5073602;28;20048;-83
2022/08/06 06:19:17;;;;;;;10.93;5.40;;;12.70;99.90;;;;;;5073282;28;20047;-84
2022/08/06 06:22:02;;;;;;;10.88;5.68;;;12.80;99.90;;;;;;5072940;28;20047;-84
2022/08/06 06:24:38;;;;;;;8.85;7.03;;;12.90;99.90;;;;;;5073688;28;20093;-85
2022/08/06 06:27:17;;;;;;;9.52;5.22;;;13.10;99.90;;;;;;5072973;28;20044;-85
2022/08/06 06:30:04;;;;;;;9.48;5.38;;;13.20;99.90;;;;;;5073570;28;20032;-85
2022/08/06 06:32:44;;;;;;;8.70;5.10;;;13.30;99.90;;;;;;5072589;28;20051;-84
2022/08/06 06:35:16;;;;;;;11.02;6.13;;;13.40;99.90;;;;;;5056342;28;20033;-84
2022/08/06 06:37:51;;;;;;;14.55;4.95;;;13.50;99.90;;;;;;5074538;28;20047;-84
2022/08/06 06:40:31;;;;;;;10.95;5.18;;;13.60;99.90;;;;;;5060882;28;20086;-84
2022/08/06 06:43:21;;;;;;;10.55;6.00;;;13.80;99.90;;;;;;5073916;28;20040;-84
2022/08/06 06:46:06;;;;;;;11.27;4.40;;;13.90;99.90;;;;;;5057538;28;20051;-84
2022/08/06 06:48:57;;;;;;;9.25;4.93;;;14.10;99.90;;;;;;5073012;28;20048;-84
2022/08/06 06:51:42;;;;;;;8.40;3.40;;;14.20;99.90;;;;;;5072840;28;20044;-84
2022/08/06 06:54:16;;;;;;;9.02;3.50;;;14.40;99.90;;;;;;5072365;28;20040;-83
2022/08/06 06:56:45;;;;;;;6.65;2.50;;;14.50;99.90;;;;;;5055997;28;20490;-84
2022/08/06 06:59:19;;;;;;;6.95;3.00;;;14.60;99.90;;;;;;5056063;28;20498;-84
2022/08/06 07:01:47;;;;;;;8.35;2.08;;;14.70;99.90;;;;;;5055511;28;20051;-84
2022/08/06 07:04:15;;;;;;;6.63;2.20;;;14.90;99.90;;;;;;5072390;28;20045;-84
2022/08/06 07:06:46;;;;;;;5.75;2.00;;;15.00;99.90;;;;;;5071933;28;20090;-84
2022/08/06 07:09:23;;;;;;;5.03;1.60;;;15.20;99.90;;;;;;5072310;28;20040;-84
2022/08/06 07:11:51;;;;;;;4.60;1.27;;;15.30;99.90;;;;;;5055006;28;20036;-84
2022/08/06 07:14:20;;;;;;;6.15;1.20;;;15.40;99.90;;;;;;5072772;28;20044;-84
2022/08/06 07:16:48;;;;;;;3.97;1.20;;;15.50;99.90;;;;;;5072423;28;20044;-84
2022/08/06 07:19:16;;;;;;;4.40;1.10;;;15.60;99.90;;;;;;5071724;28;20833;-84
2022/08/06 07:21:43;;;;;;;5.43;1.02;;;15.70;99.90;;;;;;5055301;28;20080;-84
2022/08/06 07:24:11;;;;;;;5.97;1.15;;;15.80;99.90;;;;;;5072113;28;20097;-84
2022/08/06 07:26:38;;;;;;;2.35;0.90;;;15.90;99.90;;;;;;5071931;28;20087;-84
2022/08/06 07:29:04;;;;;;;4.30;1.17;;;16.00;99.90;;;;;;5055482;28;20041;-84
2022/08/06 07:31:31;;;;;;;2.85;0.77;;;16.10;99.90;;;;;;5071384;28;20048;-85
2022/08/06 07:33:58;;;;;;;4.85;1.00;;;16.10;99.90;;;;;;5071915;28;20059;-85
2022/08/06 07:36:27;;;;;;;3.63;0.90;;;16.20;99.90;;;;;;5055528;28;20482;-84
2022/08/06 07:39:01;;;;;;;6.20;0.80;;;16.30;99.90;;;;;;5071902;28;20040;-85
2022/08/06 07:41:28;;;;;;;4.97;1.05;;;16.40;99.90;;;;;;5054795;28;20067;-85
2022/08/06 07:43:58;;;;;;;5.13;1.02;;;16.40;99.90;;;;;;5071736;28;20824;-85
2022/08/06 07:46:30;;;;;;;3.97;0.80;;;16.50;99.90;;;;;;5071540;28;20056;-85
2022/08/06 07:49:03;;;;;;;3.55;1.00;;;16.60;99.90;;;;;;5071287;28;20166;-85
2022/08/06 07:51:33;;;;;;;4.65;0.95;;;16.60;99.90;;;;;;5071050;28;20127;-85
2022/08/06 07:54:00;;;;;;;4.30;0.90;;;16.70;99.90;;;;;;5071648;28;20041;-85
2022/08/06 07:56:26;;;;;;;3.50;1.00;;;16.80;99.90;;;;;;5071379;28;20638;-85
2022/08/06 07:58:53;;;;;;;2.72;0.90;;;16.80;99.90;;;;;;5071228;28;20040;-85
2022/08/06 08:01:19;;;;;;;4.30;0.90;;;16.90;99.90;;;;;;5071024;28;20174;-85
2022/08/06 08:06:31;;;;;;;5.00;0.82;;;17.10;99.90;;;;;;5070482;28;20572;-84
2022/08/06 08:09:04;;;;;;;6.45;1.10;;;17.20;99.90;;;;;;5054316;28;20431;-84
2022/08/06 08:11:31;;;;;;;;;;;17.20;99.90;;;;;;5070848;28;20051;-84
2022/08/06 08:13:58;;;;;;;5.65;1.27;;;17.30;99.90;;;;;;5062186;28;19924;-84
2022/08/06 08:16:26;;;;;;;4.18;1.00;;;17.30;99.90;;;;;;5035016;28;20048;-84
2022/08/06 08:18:52;;;;;;;5.53;1.00;;;17.40;99.90;;;;;;5050706;28;20045;-84
2022/08/06 08:21:19;;;;;;;2.40;0.80;;;17.50;99.90;;;;;;5034161;28;20041;-84
2022/08/06 08:23:46;;;;;;;3.70;0.88;;;17.60;99.90;;;;;;5034508;28;20170;-84
2022/08/06 08:26:11;;;;;;;5.60;1.05;;;17.60;99.90;;;;;;5034126;28;20040;-84
2022/08/06 08:28:37;;;;;;;4.75;0.90;;;17.60;99.90;;;;;;5050844;28;20383;-84
2022/08/06 08:31:05;;;;;;;3.88;0.90;;;17.70;99.90;;;;;;5051796;28;20122;-84
2022/08/06 08:33:32;;;;;;;5.50;0.80;;;17.70;99.90;;;;;;5050228;28;20045;-84
2022/08/06 08:35:58;;;;;;;5.03;0.90;;;17.80;99.90;;;;;;5050620;28;20123;-84
2022/08/06 08:38:24;;;;;;;4.47;1.00;;;17.80;99.90;;;;;;5033747;28;20162;-84
2022/08/06 08:40:51;;;;;;;5.82;1.15;;;17.90;99.90;;;;;;5050325;28;20049;-85
2022/08/06 08:43:22;;;;;;;7.90;2.10;;;18.00;99.90;;;;;;5050467;28;20387;-85
2022/08/06 08:45:53;;;;;;;6.75;2.20;;;18.10;99.90;;;;;;5050671;28;20119;-84
2022/08/06 08:48:28;;;;;;;6.43;1.50;;;18.20;99.90;;;;;;5050295;28;20045;-86
2022/08/06 08:50:57;;;;;;;5.85;1.65;;;18.30;99.90;;;;;;5050106;28;20044;-85
2022/08/06 08:53:36;;;;;;;5.18;1.30;;;18.40;99.90;;;;;;5033665;28;20090;-85
2022/08/06 08:56:03;;;;;;;5.40;1.00;;;18.50;99.90;;;;;;5050242;28;20051;-85
2022/08/06 08:58:31;;;;;;;3.22;0.80;;;18.60;99.90;;;;;;5050242;28;20132;-85
2022/08/06 09:00:58;;;;;;;3.65;1.00;;;18.70;99.90;;;;;;5038281;28;20047;-85
2022/08/06 09:03:24;;;;;;;3.33;0.90;;;18.80;99.90;;;;;;5061073;28;20040;-85
2022/08/06 09:05:50;;;;;;;4.07;1.00;;;18.80;99.90;;;;;;5070199;28;20098;-85
2022/08/06 09:08:17;;;;;;;4.82;0.90;;;18.90;99.90;;;;;;5052194;28;20052;-84
2022/08/06 09:10:43;;;;;;;4.65;1.00;;;19.00;99.90;;;;;;5052710;28;20161;-84
2022/08/06 09:13:08;;;;;;;6.63;1.20;;;19.10;99.90;;;;;;5049559;28;20486;-85
2022/08/06 09:15:34;;;;;;;8.85;1.40;;;19.20;99.90;;;;;;5049930;28;20066;-84
2022/08/06 09:17:59;;;;;;;4.43;0.88;;;19.30;99.90;;;;;;5049295;28;20036;-85
2022/08/06 09:20:25;;;;;;;6.90;1.00;;;19.40;99.90;;;;;;5049966;28;20045;-84
2022/08/06 09:22:52;;;;;;;6.03;1.27;;;19.40;99.90;;;;;;5049537;28;20051;-86
2022/08/06 09:25:51;;;;;;;8.48;1.63;;;19.30;99.90;;;;;;5049942;28;20128;-85
2022/08/06 09:28:30;;;;;;;7.07;1.58;;;19.30;99.90;;;;;;5038389;28;20044;-85
2022/08/06 09:31:12;;;;;;;5.82;1.52;;;19.30;99.90;;;;;;5049266;28;20076;-85
2022/08/06 09:33:42;;;;;;;5.07;1.42;;;19.30;99.90;;;;;;5033278;28;20080;-85
2022/08/06 09:36:12;;;;;;;9.18;1.17;;;19.30;99.90;;;;;;5052499;28;20051;-84
2022/08/06 09:38:55;;;;;;;4.45;0.90;;;19.30;99.90;;;;;;5057539;28;20242;-85
2022/08/06 09:41:22;;;;;;;5.30;0.90;;;19.30;99.90;;;;;;5053932;28;20037;-85
2022/08/06 09:43:51;;;;;;;4.90;1.00;;;19.10;99.90;;;;;;5058551;28;20036;-85
2022/08/06 09:46:18;;;;;;;3.47;0.90;;;19.00;99.90;;;;;;5049357;28;20037;-85
2022/08/06 09:48:57;;;;;;;4.70;1.05;;;19.10;99.90;;;;;;5049995;28;20140;-85
2022/08/06 09:51:24;;;;;;;3.28;1.00;;;19.30;99.90;;;;;;5048625;28;20037;-85
2022/08/06 09:53:57;;;;;;;5.22;0.90;;;19.40;99.90;;;;;;5049422;28;20128;-84
2022/08/06 09:56:24;;;;;;;5.35;1.30;;;19.50;99.90;;;;;;5049689;28;20084;-84
2022/08/06 09:58:50;;;;;;;2.78;0.93;;;19.60;99.90;;;;;;5049682;28;20444;-85
2022/08/06 10:01:20;;;;;;;4.68;1.33;;;19.80;99.90;;;;;;5048884;28;20120;-85
2022/08/06 10:03:46;;;;;;;5.68;1.10;;;19.80;99.90;;;;;;5056369;28;20086;-85
2022/08/06 10:06:14;;;;;;;5.57;1.00;;;19.80;99.90;;;;;;5069617;28;20116;-85
2022/08/06 10:08:40;;;;;;;6.15;1.50;;;19.90;99.90;;;;;;5069435;28;20040;-85
2022/08/06 10:11:06;;;;;;;5.63;1.25;;;20.00;99.60;;;;;;5070588;28;20378;-85
2022/08/06 10:13:32;;;;;;;7.53;1.40;;;20.10;99.90;;;;;;5069522;28;20079;-84
2022/08/06 10:16:15;;;;;;;7.15;1.90;;;20.30;99.40;;;;;;5069105;28;20036;-84
2022/08/06 10:18:42;;;;;;;6.00;1.70;;;20.40;98.30;;;;;;5069693;28;20036;-84
2022/08/06 10:21:09;;;;;;;4.88;1.60;;;20.40;94.90;;;;;;5069018;28;20036;-84
2022/08/06 10:23:41;;;;;;;7.20;2.30;;;20.40;88.80;;;;;;5069064;28;20037;-85
2022/08/06 10:26:08;;;;;;;4.93;1.70;;;20.40;90.50;;;;;;5052737;28;20055;-91
2022/08/06 10:28:35;;;;;;;6.20;1.73;;;20.40;86.50;;;;;;5066695;28;20044;-91
2022/08/06 10:31:04;;;;;;;5.45;1.67;;;20.40;85.50;;;;;;5055846;28;20064;-91
2022/08/06 10:33:34;;;;;;;6.07;1.90;;;20.40;87.40;;;;;;5056167;28;20040;-91
2022/08/06 10:36:07;;;;;;;6.57;1.80;;;20.40;88.90;;;;;;5072943;28;20036;-91
2022/08/06 10:38:35;;;;;;;9.00;1.88;;;20.40;91.40;;;;;;5072745;28;20048;-91
2022/08/06 10:41:06;;;;;;;6.82;1.95;;;20.30;91.40;;;;;;5055991;28;20040;-91
2022/08/06 10:43:35;;;;;;;5.88;2.20;;;20.30;92.00;;;;;;5073185;28;20075;-91
2022/08/06 10:46:05;;;;;;;7.70;2.20;;;20.40;92.70;;;;;;5072767;28;20405;-91
2022/08/06 10:48:31;;;;;;;5.00;1.80;;;20.60;93.00;;;;;;5056427;28;20468;-91
2022/08/06 10:50:56;;;;;;;8.02;2.33;;;20.90;90.00;;;;;;5072850;28;20076;-91
2022/08/06 10:53:23;;;;;;;9.05;2.40;;;20.90;86.50;;;;;;5072175;28;20100;-92
2022/08/06 10:55:48;;;;;;;8.77;2.33;;;21.10;91.30;;;;;;5072641;28;20083;-91
2022/08/06 10:58:16;;;;;;;9.30;2.33;;;21.20;90.60;;;;;;5072547;28;20071;-92
2022/08/06 11:00:42;;;;;;;7.05;2.65;;;21.40;89.50;;;;;;5055583;28;20040;-91
2022/08/06 11:03:20;;;;;;;5.45;2.00;;;21.60;87.20;;;;;;5072130;28;20051;-92
2022/08/06 11:05:55;;;;;;;7.47;2.08;;;21.80;85.80;;;;;;5055701;28;20051;-92
2022/08/06 11:08:53;;;;;;;8.88;2.67;;;21.90;81.50;;;;;;5072294;28;20076;-92
2022/08/06 11:11:54;;;;;;;7.95;3.15;;;22.00;80.20;;;;;;5033308;28;20114;-92
2022/08/06 11:14:20;;;;;;;7.47;3.20;;;22.00;76.70;;;;;;5034375;28;20053;-92
2022/08/06 11:16:56;;;;;;;7.20;2.20;;;22.00;75.20;;;;;;5050647;28;20084;-92
2022/08/06 11:19:38;;;;;;;6.60;1.90;;;22.00;75.00;;;;;;5034840;28;20509;-92
2022/08/06 11:22:05;;;;;;;5.38;2.00;;;21.90;73.30;;;;;;5033730;28;20069;-90
2022/08/06 11:24:31;;;;;;;6.25;2.25;;;21.80;74.20;;;;;;5034536;28;20132;-92
2022/08/06 11:26:56;;;;;;;6.55;2.20;;;21.80;72.20;;;;;;5033501;28;20135;-92
2022/08/06 11:29:22;;;;;;;6.57;2.03;;;21.80;71.50;;;;;;5033908;28;20045;-91
2022/08/06 11:31:50;;;;;;;7.70;2.95;;;21.70;72.40;;;;;;5050456;28;20049;-92
2022/08/06 11:34:19;;;;;;;7.90;3.70;;;21.70;74.30;;;;;;5034420;28;20080;-92
2022/08/06 11:36:53;;;;;;;10.13;5.18;;;21.70;74.50;;;;;;5033805;28;20106;-92
2022/08/06 11:39:20;;;;;;;8.93;3.03;;;21.70;75.80;;;;;;5034180;28;20041;-91
2022/08/06 11:41:47;;;;;;;5.60;2.20;;;21.70;74.50;;;;;;5032747;28;20045;-90
2022/08/06 11:44:17;;;;;;;8.35;2.38;;;21.70;73.60;;;;;;5033584;28;20098;-91
2022/08/06 11:46:45;;;;;;;6.53;2.03;;;21.80;80.00;;;;;;5033811;28;20055;-91
2022/08/06 11:49:34;;;;;;;5.90;2.20;;;21.90;83.50;;;;;;5022881;28;20143;-91
2022/08/06 11:52:00;;;;;;;5.45;1.90;;;22.00;80.90;;;;;;5054290;28;20516;-92
2022/08/06 11:54:33;;;;;;;5.70;2.05;;;22.00;80.30;;;;;;5071650;28;20044;-91
2022/08/06 11:57:04;;;;;;;7.22;1.90;;;21.90;79.70;;;;;;5054864;28;20033;-91
2022/08/06 11:59:54;;;;;;;6.53;1.95;;;21.90;81.00;;;;;;5054727;28;20036;-91
2022/08/06 12:02:41;;;;;;;5.47;1.90;;;21.90;81.90;;;;;;5070975;28;20040;-91
2022/08/06 12:05:28;;;;;;;7.13;2.00;;;21.90;80.80;;;;;;5054955;28;20083;-91
2022/08/06 12:08:15;;;;;;;6.10;1.90;;;21.80;81.00;;;;;;5063714;28;20056;-91
2022/08/06 12:11:20;;;;;;;5.53;1.70;;;21.80;82.30;;;;;;5064360;28;20090;-91
2022/08/06 12:13:45;;;;;;;4.63;1.60;;;21.80;85.30;;;;;;5070827;28;20051;-91
2022/08/06 12:16:27;;;;;;;5.63;1.80;;;21.80;85.30;;;;;;5055016;28;20032;-91
2022/08/06 12:18:53;;;;;;;8.32;1.95;;;21.90;85.30;;;;;;5071056;28;20066;-90
2022/08/06 12:21:20;;;;;;;4.85;1.88;;;21.90;87.20;;;;;;5070207;28;20135;-90
2022/08/06 12:23:50;;;;;;;4.35;1.80;;;22.00;87.50;;;;;;5072450;28;20040;-90
2022/08/06 12:26:15;;;;;;;6.35;1.73;;;22.10;88.30;;;;;;5071261;28;20054;-91
2022/08/06 12:28:41;;;;;;;6.13;1.80;;;22.30;90.20;;;;;;5070534;28;20044;-92
2022/08/06 12:31:07;;;;;;;5.70;1.70;;;22.40;89.80;;;;;;5071816;28;20063;-91
2022/08/06 12:33:41;;;;;;;5.63;1.77;;;22.60;86.10;;;;;;5070476;28;20146;-91
2022/08/06 12:36:07;;;;;;;6.03;1.65;;;22.70;86.20;;;;;;5054098;28;20051;-91
2022/08/06 12:38:33;;;;;;;5.38;1.60;;;22.80;83.30;;;;;;5071283;28;20041;-91
2022/08/06 12:41:00;;;;;;;5.35;1.73;;;22.90;79.30;;;;;;5070366;28;20058;-91
2022/08/06 12:43:28;;;;;;;4.75;1.77;;;23.00;79.40;;;;;;5071719;28;20049;-91
2022/08/06 12:45:58;;;;;;;4.13;1.58;;;23.10;78.10;;;;;;5070648;28;20040;-91
2022/08/06 12:48:24;;;;;;;4.78;1.42;;;23.20;76.90;;;;;;5070538;28;20312;-91
2022/08/06 12:51:00;;;;;;;7.00;2.00;;;23.20;75.20;;;;;;5070642;28;20040;-91
2022/08/06 12:53:25;;;;;;;4.95;1.70;;;23.30;72.00;;;;;;5070090;28;20041;-92
2022/08/06 12:55:54;;;;;;;4.90;1.63;;;23.30;71.70;;;;;;5071844;28;20035;-91
2022/08/06 12:58:33;;;;;;;4.28;1.70;;;23.40;71.30;;;;;;5070098;28;20036;-91
2022/08/06 13:01:01;;;;;;;4.97;1.60;;;23.40;70.10;;;;;;5053431;28;20048;-91
2022/08/06 13:03:29;;;;;;;4.45;1.63;;;23.50;68.70;;;;;;5070672;28;20115;-91
2022/08/06 13:05:58;;;;;;;4.43;1.70;;;23.60;68.70;;;;;;5053395;28;20032;-91